createdAt,value
2022-08-23T00:02:26.235Z,3.63
2022-08-23T00:05:08.033Z,3.80
2022-08-23T00:07:42.034Z,3.95
2022-08-23T00:10:11.335Z,3.92
2022-08-23T00:12:38.056Z,3.90
2022-08-23T00:15:05.454Z,3.95
2022-08-23T00:17:34.294Z,3.67
2022-08-23T00:20:06.367Z,3.90
2022-08-23T00:22:33.339Z,4.03
2022-08-23T00:24:59.790Z,4.20
2022-08-23T00:27:26.900Z,3.72
2022-08-23T00:29:55.253Z,3.92
2022-08-23T00:32:28.905Z,3.67
2022-08-23T00:34:56.422Z,3.67
2022-08-23T00:37:24.611Z,4.00
2022-08-23T00:39:51.924Z,3.65
2022-08-23T00:43:14.943Z,3.65
2022-08-23T00:46:21.098Z,4.13
2022-08-23T00:48:47.893Z,4.00
2022-08-23T00:51:22.466Z,3.65
2022-08-23T00:53:53.561Z,3.85
2022-08-23T00:56:22.984Z,4.30
2022-08-23T00:58:50.204Z,4.07
2022-08-23T01:01:18.357Z,4.22
2022-08-23T01:03:59.094Z,3.80
2022-08-23T01:06:58.350Z,3.60
2022-08-23T01:09:25.799Z,3.95
2022-08-23T01:12:07.530Z,3.95
2022-08-23T01:15:01.566Z,4.10
2022-08-23T01:17:38.317Z,4.05
2022-08-23T01:20:12.945Z,4.10
2022-08-23T01:22:55.189Z,4.07
2022-08-23T01:25:24.533Z,4.40
2022-08-23T01:27:51.976Z,3.97
2022-08-23T01:30:23.318Z,4.38
2022-08-23T01:32:56.353Z,4.45
2022-08-23T01:35:30.976Z,3.88
2022-08-23T01:37:57.540Z,3.70
2022-08-23T01:40:24.331Z,4.15
2022-08-23T01:42:51.585Z,4.25
2022-08-23T01:45:18.134Z,4.38
2022-08-23T01:47:44.706Z,3.90
2022-08-23T01:50:13.126Z,4.40
2022-08-23T01:52:47.174Z,4.10
2022-08-23T01:55:16.614Z,3.80
2022-08-23T01:57:48.348Z,4.43
2022-08-23T02:00:19.804Z,4.20
2022-08-23T02:02:47.123Z,4.03
2022-08-23T02:05:14.434Z,4.63
2022-08-23T02:07:46.982Z,4.70
2022-08-23T02:10:14.650Z,4.40
2022-08-23T02:12:41.351Z,4.70
2022-08-23T02:15:13.814Z,4.35
2022-08-23T02:17:44.352Z,5.25
2022-08-23T02:20:11.945Z,5.03
2022-08-23T02:22:39.465Z,4.18
2022-08-23T02:25:07.197Z,4.82
2022-08-23T02:27:33.736Z,4.65
2022-08-23T02:30:02.136Z,5.00
2022-08-23T02:32:29.706Z,4.35
2022-08-23T02:35:04.863Z,4.60
2022-08-23T02:37:34.209Z,4.37
2022-08-23T02:40:00.989Z,4.75
2022-08-23T02:42:28.611Z,4.55
2022-08-23T02:44:55.477Z,4.97
2022-08-23T02:47:22.202Z,4.90
2022-08-23T02:50:06.186Z,4.47
2022-08-23T02:52:33.710Z,4.95
2022-08-23T02:55:00.501Z,5.00
2022-08-23T02:57:27.795Z,4.63
2022-08-23T02:59:59.153Z,4.85
2022-08-23T03:02:25.707Z,4.43
2022-08-23T03:04:52.355Z,4.80
2022-08-23T03:07:19.270Z,4.80
2022-08-23T03:09:46.210Z,4.73
2022-08-23T03:12:12.964Z,4.60
2022-08-23T03:14:43.865Z,4.72
2022-08-23T03:17:11.206Z,4.70
2022-08-23T03:19:37.988Z,4.83
2022-08-23T03:22:04.648Z,5.27
2022-08-23T03:24:31.284Z,4.83
2022-08-23T03:26:59.585Z,5.40
2022-08-23T03:29:26.159Z,4.77
2022-08-23T03:31:59.636Z,4.50
2022-08-23T03:34:27.461Z,5.13
2022-08-23T03:36:54.280Z,5.33
2022-08-23T03:39:20.742Z,4.90
2022-08-23T03:41:48.216Z,5.13
2022-08-23T03:44:14.970Z,5.00
2022-08-23T03:46:43.893Z,4.70
2022-08-23T03:49:10.536Z,5.40
2022-08-23T03:51:58.297Z,4.50
2022-08-23T03:54:24.886Z,4.80
2022-08-23T03:56:59.678Z,4.57
2022-08-23T03:59:30.121Z,4.83
2022-08-23T04:01:57.133Z,5.27
2022-08-23T04:04:23.704Z,4.87
2022-08-23T04:07:20.813Z,4.80
2022-08-23T04:09:54.829Z,4.43
2022-08-23T04:12:23.353Z,4.90
2022-08-23T04:14:49.802Z,4.97
2022-08-23T04:17:17.794Z,4.50
2022-08-23T04:19:44.391Z,4.90
2022-08-23T04:22:13.657Z,5.73
2022-08-23T04:24:41.955Z,5.23
2022-08-23T04:27:08.574Z,5.07
2022-08-23T04:29:35.164Z,4.77
2022-08-23T04:32:05.245Z,4.47
2022-08-23T04:34:34.855Z,5.20
2022-08-23T04:37:02.102Z,4.90
2022-08-23T04:39:29.326Z,5.10
2022-08-23T04:42:15.898Z,5.30
2022-08-23T04:44:43.636Z,5.17
2022-08-23T04:47:10.174Z,5.80
2022-08-23T04:49:36.732Z,6.03
2022-08-23T04:52:03.658Z,5.30
2022-08-23T04:54:31.489Z,5.30
2022-08-23T04:57:18.670Z,5.43
2022-08-23T04:59:45.612Z,5.60
2022-08-23T05:02:12.469Z,5.33
2022-08-23T05:04:39.152Z,5.23
2022-08-23T05:07:05.645Z,5.03
2022-08-23T05:09:33.297Z,5.00
2022-08-23T05:11:59.732Z,4.60
2022-08-23T05:14:27.997Z,5.30
2022-08-23T05:16:54.902Z,5.23
2022-08-23T05:19:24.797Z,5.07
2022-08-23T05:21:56.359Z,5.30
2022-08-23T05:24:27.990Z,5.30
2022-08-23T05:26:54.427Z,5.20
2022-08-23T05:29:21.465Z,5.67
2022-08-23T05:31:50.362Z,5.70
2022-08-23T05:34:22.444Z,5.37
2022-08-23T05:36:56.482Z,5.60
2022-08-23T05:39:36.448Z,5.63
2022-08-23T05:42:11.278Z,5.50
2022-08-23T05:44:38.255Z,5.00
2022-08-23T05:47:10.642Z,4.60
2022-08-23T05:49:45.007Z,4.88
2022-08-23T05:52:13.572Z,4.78
2022-08-23T05:54:42.627Z,5.03
2022-08-23T05:57:24.514Z,5.07
2022-08-23T05:59:50.994Z,4.43
2022-08-23T06:02:17.432Z,4.68
2022-08-23T06:04:43.949Z,5.03
2022-08-23T06:07:11.661Z,4.75
2022-08-23T06:09:39.060Z,5.25
2022-08-23T06:12:05.724Z,5.07
2022-08-23T06:14:32.323Z,4.60
2022-08-23T06:16:58.980Z,4.68
2022-08-23T06:19:27.254Z,4.60
2022-08-23T06:22:12.172Z,4.72
2022-08-23T06:24:41.667Z,4.63
2022-08-23T06:27:13.873Z,4.47
2022-08-23T06:29:41.148Z,4.63
2022-08-23T06:32:26.147Z,4.60
2022-08-23T06:35:38.223Z,4.38
2022-08-23T06:38:09.552Z,4.25
2022-08-23T06:40:49.063Z,4.63
2022-08-23T06:43:24.320Z,4.80
2022-08-23T06:46:08.966Z,4.57
2022-08-23T06:48:35.397Z,4.40
2022-08-23T06:51:02.002Z,4.05
2022-08-23T06:54:03.234Z,4.20
2022-08-23T06:57:01.071Z,4.32
2022-08-23T06:59:31.189Z,4.40
2022-08-23T07:02:21.209Z,4.00
2022-08-23T07:05:07.947Z,3.72
2022-08-23T07:07:44.295Z,4.28
2022-08-23T07:10:14.318Z,4.40
2022-08-23T07:12:42.729Z,4.35
2022-08-23T07:15:11.558Z,3.50
2022-08-23T07:17:38.656Z,4.13
2022-08-23T07:20:05.796Z,3.25
2022-08-23T07:22:34.904Z,3.33
2022-08-23T07:25:03.861Z,3.45
2022-08-23T07:27:31.446Z,3.30
2022-08-23T07:30:02.564Z,3.22
2022-08-23T07:32:30.048Z,3.53
2022-08-23T07:34:58.301Z,3.42
2022-08-23T07:37:26.320Z,3.30
2022-08-23T07:39:52.906Z,3.35
2022-08-23T07:42:25.322Z,3.47
2022-08-23T07:44:54.872Z,3.35
2022-08-23T07:47:24.208Z,3.22
2022-08-23T07:49:54.282Z,3.15
2022-08-23T07:52:20.853Z,2.88
2022-08-23T07:54:48.546Z,3.25
2022-08-23T07:57:45.506Z,3.25
2022-08-23T08:00:30.348Z,2.88
2022-08-23T08:03:25.540Z,3.40
2022-08-23T08:06:11.689Z,3.13
2022-08-23T08:08:40.975Z,3.50
2022-08-23T08:11:09.270Z,3.63
2022-08-23T08:13:38.508Z,3.80
2022-08-23T08:16:06.551Z,3.25
2022-08-23T08:18:35.962Z,3.50
2022-08-23T08:21:21.294Z,3.30
2022-08-23T08:23:58.797Z,3.30
2022-08-23T08:26:36.980Z,2.72
2022-08-23T08:29:04.548Z,2.97
2022-08-23T08:31:34.549Z,3.10
2022-08-23T08:34:01.209Z,3.05
2022-08-23T08:36:49.426Z,3.30
2022-08-23T08:39:22.176Z,3.35
2022-08-23T08:42:20.556Z,3.22
2022-08-23T08:44:55.131Z,3.03
2022-08-23T08:47:54.044Z,3.10
2022-08-23T08:50:36.905Z,3.45
2022-08-23T08:53:22.257Z,3.10
2022-08-23T08:56:32.909Z,2.95
2022-08-23T08:59:16.099Z,3.30
2022-08-23T09:01:42.677Z,3.15
2022-08-23T09:04:13.672Z,3.13
2022-08-23T09:07:07.840Z,3.30
2022-08-23T09:09:50.027Z,3.03
2022-08-23T09:12:25.730Z,3.60
2022-08-23T09:15:19.773Z,3.20
2022-08-23T09:17:55.889Z,3.08
2022-08-23T09:20:32.994Z,3.17
2022-08-23T09:23:31.938Z,3.15
2022-08-23T09:26:03.858Z,3.35
2022-08-23T09:28:36.960Z,3.20
2022-08-23T09:31:08.325Z,3.78
2022-08-23T09:33:42.052Z,3.05
2022-08-23T09:36:26.506Z,3.78
2022-08-23T09:39:23.160Z,3.60
2022-08-23T09:42:00.713Z,3.30
2022-08-23T09:44:45.386Z,3.20
2022-08-23T09:47:17.096Z,3.60
2022-08-23T09:49:52.406Z,3.55
2022-08-23T09:52:37.586Z,3.55
2022-08-23T09:55:10.664Z,3.05
2022-08-23T09:57:48.022Z,3.45
2022-08-23T10:00:17.349Z,3.58
2022-08-23T10:02:49.157Z,3.60
2022-08-23T10:05:30.529Z,3.30
2022-08-23T10:08:02.708Z,3.45
2022-08-23T10:10:37.302Z,3.40
2022-08-23T10:13:06.248Z,3.50
2022-08-23T10:15:45.263Z,3.22
2022-08-23T10:18:29.747Z,3.50
2022-08-23T10:21:21.152Z,3.40
2022-08-23T10:24:19.687Z,3.72
2022-08-23T10:26:52.306Z,3.72
2022-08-23T10:29:40.979Z,3.60
2022-08-23T10:32:25.559Z,3.78
2022-08-23T10:35:17.776Z,3.78
2022-08-23T10:38:03.606Z,3.55
2022-08-23T10:40:45.876Z,3.30
2022-08-23T10:43:26.045Z,3.40
2022-08-23T10:46:00.232Z,3.35
2022-08-23T10:48:54.787Z,3.08
2022-08-23T10:51:31.886Z,3.00
2022-08-23T10:54:07.552Z,3.17
2022-08-23T10:56:35.324Z,3.35
2022-08-23T10:59:26.192Z,3.10
2022-08-23T11:02:15.399Z,3.05
2022-08-23T11:05:00.944Z,3.05
2022-08-23T11:07:38.967Z,3.10
2022-08-23T11:10:26.285Z,3.50
2022-08-23T11:13:00.599Z,2.92
2022-08-23T11:15:41.385Z,3.00
2022-08-23T11:18:34.850Z,3.30
2022-08-23T11:21:05.466Z,3.20
2022-08-23T11:23:45.148Z,3.20
2022-08-23T11:26:39.777Z,3.08
2022-08-23T11:29:07.142Z,3.00
2022-08-23T11:31:50.374Z,2.83
2022-08-23T11:34:25.830Z,3.15
2022-08-23T11:37:18.970Z,3.00
2022-08-23T11:39:59.739Z,3.20
2022-08-23T11:42:38.144Z,3.45
2022-08-23T11:45:27.358Z,3.33
2022-08-23T11:48:37.186Z,3.33
2022-08-23T11:51:17.972Z,3.17
2022-08-23T11:53:54.158Z,3.05
2022-08-23T11:56:26.650Z,3.70
2022-08-23T11:59:15.439Z,4.00
2022-08-23T12:01:44.798Z,3.47
2022-08-23T12:04:26.396Z,3.03
2022-08-23T12:07:01.640Z,3.75
2022-08-23T12:09:28.024Z,3.10
2022-08-23T12:11:57.631Z,3.47
2022-08-23T12:14:42.366Z,3.05
2022-08-23T12:17:11.831Z,3.15
2022-08-23T12:19:42.013Z,2.85
2022-08-23T12:22:21.629Z,3.13
2022-08-23T12:24:54.733Z,3.35
2022-08-23T12:27:41.967Z,3.65
2022-08-23T12:30:20.627Z,2.78
2022-08-23T12:32:47.209Z,2.97
2022-08-23T12:35:38.461Z,3.28
2022-08-23T12:38:17.796Z,2.92
2022-08-23T12:40:50.620Z,3.58
2022-08-23T12:43:22.829Z,2.83
2022-08-23T12:45:55.698Z,3.13
2022-08-23T12:48:25.697Z,3.10
2022-08-23T12:50:58.855Z,3.22
2022-08-23T12:53:33.790Z,3.50
2022-08-23T12:56:22.781Z,3.53
2022-08-23T12:59:03.322Z,3.22
2022-08-23T13:01:34.422Z,3.30
2022-08-23T13:04:14.234Z,2.75
2022-08-23T13:06:46.742Z,3.17
2022-08-23T13:09:38.247Z,3.33
2022-08-23T13:12:06.940Z,3.22
2022-08-23T13:14:48.516Z,3.20
2022-08-23T13:17:27.177Z,2.92
2022-08-23T13:20:22.885Z,3.15
2022-08-23T13:22:56.765Z,2.90
2022-08-23T13:25:36.467Z,3.22
2022-08-23T13:28:26.211Z,3.33
2022-08-23T13:31:05.878Z,2.70
2022-08-23T13:33:32.485Z,2.90
2022-08-23T13:36:17.260Z,2.83
2022-08-23T13:38:44.798Z,3.40
2022-08-23T13:41:39.015Z,2.90
2022-08-23T13:44:08.249Z,3.10
2022-08-23T13:46:43.302Z,3.25
2022-08-23T13:49:28.376Z,2.85
2022-08-23T13:52:24.607Z,3.28
2022-08-23T13:54:51.274Z,3.35
2022-08-23T13:57:21.081Z,3.42
2022-08-23T13:59:53.429Z,2.75
2022-08-23T14:02:22.705Z,3.55
2022-08-23T14:04:49.349Z,3.22
2022-08-23T14:07:16.053Z,3.38
2022-08-23T14:09:42.615Z,3.28
2022-08-23T14:12:14.385Z,3.15
2022-08-23T14:14:41.954Z,3.50
2022-08-23T14:17:12.853Z,3.08
2022-08-23T14:22:33.270Z,2.80
2022-08-23T14:24:59.710Z,3.00
2022-08-23T14:27:26.127Z,2.97
2022-08-23T14:29:52.585Z,3.17
2022-08-23T14:32:19.044Z,2.80
2022-08-23T14:34:45.435Z,2.90
2022-08-23T14:39:58.648Z,2.80
2022-08-23T14:42:25.319Z,2.90
2022-08-23T14:44:51.821Z,2.83
2022-08-23T14:47:19.123Z,2.72
2022-08-23T14:49:46.448Z,2.78
2022-08-23T14:52:14.927Z,3.10
2022-08-23T14:54:42.006Z,2.97
2022-08-23T14:57:09.772Z,2.88
2022-08-23T14:59:36.301Z,2.83
2022-08-23T15:02:06.529Z,2.78
2022-08-23T15:04:34.578Z,2.78
2022-08-23T15:07:18.908Z,2.88
2022-08-23T15:09:50.572Z,2.75
2022-08-23T15:15:12.534Z,2.78
2022-08-23T15:17:47.522Z,2.90
2022-08-23T15:20:14.193Z,2.78
2022-08-23T15:22:44.947Z,2.88
2022-08-23T15:25:13.256Z,3.08
2022-08-23T15:27:39.815Z,3.00
2022-08-23T15:30:07.405Z,2.85
2022-08-23T15:32:33.842Z,2.70
2022-08-23T15:35:01.509Z,3.00
2022-08-23T15:37:28.754Z,2.65
2022-08-23T15:39:55.293Z,2.70
2022-08-23T15:42:21.727Z,2.55
2022-08-23T15:44:49.253Z,2.65
2022-08-23T15:47:26.029Z,2.72
2022-08-23T15:49:52.998Z,2.97
2022-08-23T15:52:19.953Z,3.13
2022-08-23T15:54:47.212Z,2.90
2022-08-23T15:57:21.526Z,3.10
2022-08-23T15:59:47.996Z,2.70
2022-08-23T16:02:15.149Z,2.70
2022-08-23T16:04:42.001Z,2.75
2022-08-23T16:07:12.818Z,3.00
2022-08-23T16:09:39.261Z,3.10
2022-08-23T16:12:06.406Z,2.80
2022-08-23T16:14:33.130Z,3.08
2022-08-23T16:17:00.391Z,2.70
2022-08-23T16:19:27.943Z,2.90
2022-08-23T16:21:54.996Z,2.83
2022-08-23T16:24:24.664Z,2.55
2022-08-23T16:26:52.079Z,2.75
2022-08-23T16:29:20.175Z,2.80
2022-08-23T16:31:47.286Z,3.08
2022-08-23T16:34:17.108Z,3.10
2022-08-23T16:36:46.476Z,2.70
2022-08-23T16:39:16.351Z,2.60
2022-08-23T16:41:42.818Z,3.10
2022-08-23T16:44:09.292Z,2.75
2022-08-23T16:46:36.688Z,3.00
2022-08-23T16:49:03.397Z,2.92
2022-08-23T16:51:29.876Z,3.03
2022-08-23T16:54:01.584Z,2.95
2022-08-23T16:56:33.896Z,2.83
2022-08-23T16:59:01.308Z,3.20
2022-08-23T17:01:28.605Z,3.47
2022-08-23T17:03:55.269Z,2.92
2022-08-23T17:06:21.890Z,3.10
2022-08-23T17:08:48.394Z,2.90
2022-08-23T17:11:18.433Z,2.90
2022-08-23T17:13:45.571Z,2.88
2022-08-23T17:16:12.666Z,3.13
2022-08-23T17:18:39.449Z,3.20
2022-08-23T17:21:06.738Z,2.88
2022-08-23T17:23:33.514Z,3.08
2022-08-23T17:26:05.850Z,3.03
2022-08-23T17:28:32.777Z,3.22
2022-08-23T17:30:59.409Z,3.28
2022-08-23T17:33:25.879Z,3.20
2022-08-23T17:35:52.328Z,3.35
2022-08-23T17:38:20.175Z,3.17
2022-08-23T17:40:46.900Z,3.30
2022-08-23T17:43:13.785Z,3.45
2022-08-23T17:45:44.232Z,3.20
2022-08-23T17:48:13.101Z,3.28
2022-08-23T17:50:41.982Z,3.58
2022-08-23T17:53:08.408Z,3.38
2022-08-23T17:55:36.157Z,3.33
2022-08-23T17:58:04.344Z,3.25
2022-08-23T18:00:33.473Z,3.20
2022-08-23T18:03:00.747Z,3.42
2022-08-23T18:05:29.799Z,3.33
2022-08-23T18:07:56.277Z,3.60
2022-08-23T18:10:23.348Z,3.30
2022-08-23T18:12:49.810Z,3.30
2022-08-23T18:15:16.728Z,3.25
2022-08-23T18:17:43.152Z,3.28
2022-08-23T18:20:11.396Z,3.30
2022-08-23T18:22:39.073Z,3.88
2022-08-23T18:25:09.358Z,3.40
2022-08-23T18:27:54.291Z,3.83
2022-08-23T18:30:21.403Z,3.88
2022-08-23T18:32:47.839Z,3.70
2022-08-23T18:35:14.979Z,3.55
2022-08-23T18:37:42.109Z,3.60
2022-08-23T18:40:10.329Z,3.53
2022-08-23T18:42:37.588Z,3.58
2022-08-23T18:45:05.743Z,3.60
2022-08-23T18:47:32.817Z,3.60
2022-08-23T18:49:59.320Z,3.40
2022-08-23T18:52:27.498Z,3.42
2022-08-23T18:54:57.520Z,3.40
2022-08-23T18:57:24.257Z,3.08
2022-08-23T18:59:51.285Z,3.60
2022-08-23T19:02:17.789Z,3.70
2022-08-23T19:04:44.341Z,4.20
2022-08-23T19:07:10.865Z,4.10
2022-08-23T19:09:37.909Z,4.00
2022-08-23T19:12:06.413Z,3.80
2022-08-23T19:14:35.461Z,3.38
2022-08-23T19:17:03.678Z,3.65
2022-08-23T19:19:30.353Z,3.45
2022-08-23T19:21:58.141Z,3.42
2022-08-23T19:24:25.180Z,3.80
2022-08-23T19:26:52.480Z,3.55
2022-08-23T19:29:21.102Z,3.95
2022-08-23T19:31:50.262Z,3.60
2022-08-23T19:34:20.788Z,4.25
2022-08-23T19:36:53.596Z,3.58
2022-08-23T19:39:27.334Z,3.75
2022-08-23T19:41:54.195Z,3.47
2022-08-23T19:44:21.236Z,3.13
2022-08-23T19:46:48.334Z,3.50
2022-08-23T19:49:14.931Z,3.90
2022-08-23T19:51:42.924Z,3.60
2022-08-23T19:54:13.161Z,3.78
2022-08-23T19:56:53.024Z,3.60
2022-08-23T19:59:23.727Z,4.07
2022-08-23T20:01:52.811Z,3.97
2022-08-23T20:04:21.540Z,3.88
2022-08-23T20:06:48.741Z,3.75
2022-08-23T20:09:15.867Z,3.67
2022-08-23T20:11:42.544Z,4.40
2022-08-23T20:14:09.965Z,4.20
2022-08-23T20:16:37.811Z,3.97
2022-08-23T20:19:08.834Z,3.80
2022-08-23T20:21:35.877Z,4.28
2022-08-23T20:24:03.555Z,4.00
2022-08-23T20:26:40.683Z,3.92
2022-08-23T20:29:10.175Z,4.45
2022-08-23T20:31:45.931Z,4.22
2022-08-23T20:34:12.475Z,4.50
2022-08-23T20:36:38.952Z,3.72
2022-08-23T20:39:05.815Z,4.57
2022-08-23T20:41:36.954Z,4.25
2022-08-23T20:44:05.929Z,4.07
2022-08-23T20:46:32.430Z,4.50
2022-08-23T20:48:58.973Z,4.40
2022-08-23T20:51:27.925Z,4.18
2022-08-23T20:53:55.842Z,4.07
2022-08-23T20:56:23.367Z,4.60
2022-08-23T20:58:50.346Z,4.15
2022-08-23T21:01:17.148Z,4.18
2022-08-23T21:03:43.973Z,4.50
2022-08-23T21:06:22.130Z,4.45
2022-08-23T21:08:53.534Z,4.35
2022-08-23T21:11:22.094Z,4.25
2022-08-23T21:13:48.815Z,4.28
2022-08-23T21:16:16.676Z,4.13
2022-08-23T21:18:43.895Z,4.05
2022-08-23T21:21:10.811Z,4.40
2022-08-23T21:23:38.072Z,4.40
2022-08-23T21:26:06.301Z,4.75
2022-08-23T21:28:33.454Z,4.47
2022-08-23T21:31:10.281Z,4.55
2022-08-23T21:33:40.133Z,5.13
2022-08-23T21:36:07.638Z,4.70
2022-08-23T21:38:34.917Z,4.65
2022-08-23T21:41:05.120Z,5.07
2022-08-23T21:43:32.612Z,4.72
2022-08-23T21:45:59.170Z,4.85
2022-08-23T21:48:25.702Z,4.78
2022-08-23T21:50:52.432Z,4.90
2022-08-23T21:53:19.860Z,5.53
2022-08-23T21:55:46.432Z,5.32
2022-08-23T21:58:13.442Z,4.90
2022-08-23T22:00:41.182Z,4.70
2022-08-23T22:03:09.081Z,5.03
2022-08-23T22:05:41.130Z,4.32
2022-08-23T22:08:08.017Z,4.45
2022-08-23T22:10:37.200Z,4.88
2022-08-23T22:13:05.100Z,4.70
2022-08-23T22:15:32.604Z,4.75
2022-08-23T22:18:03.196Z,4.88
2022-08-23T22:20:31.471Z,5.22
2022-08-23T22:22:58.737Z,4.80
2022-08-23T22:25:25.504Z,4.88
2022-08-23T22:27:52.892Z,4.90
2022-08-23T22:30:20.072Z,4.55
2022-08-23T22:32:46.607Z,4.45
2022-08-23T22:35:13.738Z,4.57
2022-08-23T22:38:03.579Z,4.85
2022-08-23T22:40:30.207Z,4.68
2022-08-23T22:42:56.635Z,4.75
2022-08-23T22:45:23.952Z,4.45
2022-08-23T22:47:50.472Z,4.72
2022-08-23T22:50:16.981Z,4.30
2022-08-23T22:52:43.560Z,5.00
2022-08-23T22:55:10.141Z,4.30
2022-08-23T22:57:38.753Z,4.20
2022-08-23T23:00:07.094Z,4.50
2022-08-23T23:02:37.378Z,4.70
2022-08-23T23:05:04.159Z,4.82
2022-08-23T23:07:49.297Z,4.40
2022-08-23T23:10:15.806Z,4.47
2022-08-23T23:12:42.361Z,3.97
2022-08-23T23:15:09.480Z,4.68
2022-08-23T23:17:35.979Z,4.55
2022-08-23T23:20:22.023Z,4.60
2022-08-23T23:22:48.495Z,4.68
2022-08-23T23:25:14.916Z,4.45
2022-08-23T23:27:41.322Z,5.05
2022-08-23T23:30:09.824Z,4.72
2022-08-23T23:32:36.246Z,4.53
2022-08-23T23:35:02.855Z,4.78
2022-08-23T23:37:30.199Z,4.82
2022-08-23T23:39:56.966Z,5.15
2022-08-23T23:42:23.510Z,5.05
2022-08-23T23:44:50.108Z,4.88
2022-08-23T23:47:17.720Z,4.88
2022-08-23T23:49:44.690Z,4.82
2022-08-23T23:52:11.219Z,5.03
2022-08-23T23:54:38.412Z,5.88
2022-08-23T23:57:06.023Z,5.30
2022-08-23T23:59:33.902Z,5.53
